createdAt,value
2017-02-18T00:00:13.378Z,21.93
2017-02-18T00:01:22.523Z,21.8
2017-02-18T00:02:32.467Z,21.83
2017-02-18T00:03:42.423Z,21.88
2017-02-18T00:04:51.966Z,21.88
2017-02-18T00:06:01.933Z,21.8
2017-02-18T00:07:11.836Z,21.8
2017-02-18T00:08:21.380Z,21.88
2017-02-18T00:09:30.963Z,21.88
2017-02-18T00:10:41.283Z,21.77
2017-02-18T00:11:51.245Z,21.72
2017-02-18T00:13:00.412Z,21.82
2017-02-18T00:14:09.202Z,21.76
2017-02-18T00:15:19.108Z,21.76
2017-02-18T00:16:28.642Z,21.72
2017-02-18T00:17:38.630Z,21.69
2017-02-18T00:18:48.993Z,21.76
2017-02-18T00:19:58.220Z,21.82
2017-02-18T00:21:07.785Z,21.83
2017-02-18T00:22:17.919Z,21.77
2017-02-18T00:23:27.668Z,21.75
2017-02-18T00:24:37.992Z,21.7
2017-02-18T00:25:47.224Z,21.76
2017-02-18T00:26:56.393Z,21.69
2017-02-18T00:28:06.729Z,21.66
2017-02-18T00:29:16.288Z,21.69
2017-02-18T00:30:25.449Z,21.72
2017-02-18T00:31:34.999Z,21.73
2017-02-18T00:32:44.944Z,21.72
2017-02-18T00:33:55.274Z,21.7
2017-02-18T00:35:04.837Z,21.69
2017-02-18T00:36:14.415Z,21.75
2017-02-18T00:37:23.582Z,21.69
2017-02-18T00:38:33.544Z,21.7
2017-02-18T00:39:43.442Z,21.67
2017-02-18T00:40:53.358Z,21.67
2017-02-18T00:42:02.953Z,21.64
2017-02-18T00:43:12.521Z,21.6
2017-02-18T00:44:22.112Z,21.6
2017-02-18T00:45:31.675Z,21.7
2017-02-18T00:46:40.872Z,21.6
2017-02-18T00:47:50.818Z,21.69
2017-02-18T00:48:59.942Z,21.58
2017-02-18T00:50:09.843Z,21.6
2017-02-18T00:51:19.422Z,21.64
2017-02-18T00:52:29.367Z,21.55
2017-02-18T00:53:38.917Z,21.62
2017-02-18T00:54:48.487Z,21.66
2017-02-18T00:55:58.831Z,21.62
2017-02-18T00:57:08.388Z,21.57
2017-02-18T00:58:17.938Z,21.58
2017-02-18T00:59:27.483Z,21.61
2017-02-18T01:00:36.243Z,21.58
2017-02-18T01:01:46.572Z,21.57
2017-02-18T01:02:56.539Z,21.57
2017-02-18T01:04:06.485Z,21.6
2017-02-18T01:05:16.571Z,21.54
2017-02-18T01:06:26.906Z,21.62
2017-02-18T01:07:36.482Z,21.58
2017-02-18T01:08:45.650Z,21.57
2017-02-18T01:09:55.208Z,21.51
2017-02-18T01:11:05.562Z,21.52
2017-02-18T01:12:15.476Z,21.52
2017-02-18T01:13:25.818Z,21.58
2017-02-18T01:14:35.001Z,21.46
2017-02-18T01:15:44.202Z,21.58
2017-02-18T01:16:54.150Z,21.55
2017-02-18T01:18:04.111Z,21.46
2017-02-18T01:19:13.679Z,21.58
2017-02-18T01:20:23.247Z,21.43
2017-02-18T01:21:32.807Z,21.48
2017-02-18T01:22:41.600Z,21.43
2017-02-18T01:23:51.157Z,21.45
2017-02-18T01:25:00.738Z,21.48
2017-02-18T01:26:10.271Z,21.45
2017-02-18T01:27:20.593Z,21.54
2017-02-18T01:28:30.928Z,21.4
2017-02-18T01:29:40.438Z,21.5
2017-02-18T01:30:50.350Z,21.45
2017-02-18T01:31:59.947Z,21.43
2017-02-18T01:33:10.671Z,21.43
2017-02-18T01:34:21.006Z,21.42
2017-02-18T01:35:30.182Z,21.43
2017-02-18T01:36:39.390Z,21.4
2017-02-18T01:37:49.343Z,21.4
2017-02-18T01:38:58.910Z,21.4
2017-02-18T01:40:09.245Z,21.45
2017-02-18T01:41:19.282Z,21.43
2017-02-18T01:42:29.610Z,21.37
2017-02-18T01:43:38.371Z,21.39
2017-02-18T01:44:47.905Z,21.39
2017-02-18T01:45:57.434Z,21.46
2017-02-18T01:47:07.348Z,21.39
2017-02-18T01:48:17.314Z,21.42
2017-02-18T01:49:26.518Z,21.35
2017-02-18T01:50:36.479Z,21.37
2017-02-18T01:51:46.042Z,21.36
2017-02-18T01:52:54.828Z,21.37
2017-02-18T01:54:04.789Z,21.37
2017-02-18T01:55:14.347Z,21.37
2017-02-18T01:56:23.610Z,21.35
2017-02-18T01:57:33.176Z,21.36
2017-02-18T01:58:42.737Z,21.33
2017-02-18T01:59:52.695Z,21.36
2017-02-18T02:01:02.623Z,21.32
2017-02-18T02:02:12.197Z,21.27
2017-02-18T02:03:21.368Z,21.36
2017-02-18T02:04:31.704Z,21.3
2017-02-18T02:05:40.873Z,21.33
2017-02-18T02:06:50.446Z,21.33
2017-02-18T02:08:00.015Z,21.29
2017-02-18T02:09:09.961Z,21.37
2017-02-18T02:10:19.521Z,21.24
2017-02-18T02:11:29.461Z,21.25
2017-02-18T02:12:39.405Z,21.29
2017-02-18T02:13:48.565Z,21.24
2017-02-18T02:14:57.691Z,21.25
2017-02-18T02:16:07.224Z,21.35
2017-02-18T02:17:16.004Z,21.24
2017-02-18T02:18:25.160Z,21.21
2017-02-18T02:19:34.298Z,21.24
2017-02-18T02:20:43.098Z,21.24
2017-02-18T02:21:52.265Z,21.22
2017-02-18T02:23:01.870Z,21.29
2017-02-18T02:24:11.428Z,21.22
2017-02-18T02:25:21.023Z,21.25
2017-02-18T02:26:29.803Z,21.22
2017-02-18T02:27:39.758Z,21.35
2017-02-18T02:28:49.279Z,21.21
2017-02-18T02:29:58.817Z,21.24
2017-02-18T02:31:08.783Z,21.21
2017-02-18T02:32:19.117Z,21.25
2017-02-18T02:33:28.261Z,21.24
2017-02-18T02:34:38.178Z,21.21
2017-02-18T02:35:48.142Z,21.18
2017-02-18T02:36:57.301Z,21.22
2017-02-18T02:38:06.476Z,21.24
2017-02-18T02:39:16.052Z,21.21
2017-02-18T02:40:26.020Z,21.24
2017-02-18T02:41:35.152Z,21.24
2017-02-18T02:42:45.056Z,21.25
2017-02-18T02:43:54.660Z,21.22
2017-02-18T02:45:04.631Z,21.18
2017-02-18T02:46:13.810Z,21.22
2017-02-18T02:47:23.323Z,21.27
2017-02-18T02:48:32.852Z,21.22
2017-02-18T02:49:41.652Z,21.18
2017-02-18T02:50:51.004Z,21.17
2017-02-18T02:52:01.314Z,21.21
2017-02-18T02:53:10.504Z,21.21
2017-02-18T02:54:19.658Z,21.2
2017-02-18T02:55:29.227Z,21.18
2017-02-18T02:56:38.392Z,21.2
2017-02-18T02:57:47.946Z,21.2
2017-02-18T02:58:57.121Z,21.17
2017-02-18T03:00:06.684Z,21.17
2017-02-18T03:01:16.237Z,21.11
2017-02-18T03:02:25.742Z,21.14
2017-02-18T03:03:34.890Z,21.2
2017-02-18T03:04:44.077Z,21.18
2017-02-18T03:05:54.416Z,21.14
2017-02-18T03:07:03.965Z,21.17
2017-02-18T03:08:14.238Z,21.11
2017-02-18T03:09:23.362Z,21.14
2017-02-18T03:10:33.615Z,21.09
2017-02-18T03:11:43.521Z,21.14
2017-02-18T03:12:54.239Z,21.15
2017-02-18T03:14:04.585Z,21.14
2017-02-18T03:15:14.169Z,21.14
2017-02-18T03:16:24.119Z,21.15
2017-02-18T03:17:33.675Z,21.12
2017-02-18T03:18:44.004Z,21.21
2017-02-18T03:19:53.167Z,21.12
2017-02-18T03:21:02.740Z,21.09
2017-02-18T03:22:11.928Z,21.09
2017-02-18T03:23:21.129Z,21.09
2017-02-18T03:24:31.069Z,21.15
2017-02-18T03:25:41.352Z,21.14
2017-02-18T03:26:51.658Z,21.14
2017-02-18T03:28:01.611Z,21.09
2017-02-18T03:29:11.167Z,21.17
2017-02-18T03:30:20.346Z,21.14
2017-02-18T03:31:30.650Z,21.11
2017-02-18T03:32:40.529Z,21.06
2017-02-18T03:33:50.057Z,21.14
2017-02-18T03:35:00.002Z,21.15
2017-02-18T03:36:09.928Z,21.09
2017-02-18T03:37:19.469Z,21.06
2017-02-18T03:38:30.192Z,21.07
2017-02-18T03:39:40.152Z,21.06
2017-02-18T03:40:50.090Z,21.09
2017-02-18T03:42:00.811Z,21.05
2017-02-18T03:43:09.978Z,21.07
2017-02-18T03:44:19.547Z,21.06
2017-02-18T03:45:29.122Z,21.09
2017-02-18T03:46:37.922Z,21.06
2017-02-18T03:47:47.518Z,21.06
2017-02-18T03:48:57.471Z,21.11
2017-02-18T03:50:07.817Z,21.09
2017-02-18T03:51:18.161Z,21.07
2017-02-18T03:52:27.334Z,21.06
2017-02-18T03:53:36.891Z,21.09
2017-02-18T03:54:46.443Z,21.07
2017-02-18T03:56:03.167Z,21.07
2017-02-18T03:57:12.734Z,21.05
2017-02-18T03:58:22.467Z,21.03
2017-02-18T03:59:32.410Z,21.03
2017-02-18T04:00:42.349Z,21.03
2017-02-18T04:01:51.484Z,21.07
2017-02-18T04:03:00.625Z,20.99
2017-02-18T04:04:10.962Z,21
2017-02-18T04:05:20.882Z,20.99
2017-02-18T04:06:31.142Z,21.02
2017-02-18T04:07:41.428Z,21
2017-02-18T04:08:50.984Z,21.03
2017-02-18T04:10:00.926Z,21.03
2017-02-18T04:11:10.471Z,20.99
2017-02-18T04:12:21.158Z,20.99
2017-02-18T04:13:31.496Z,21
2017-02-18T04:14:41.453Z,20.99
2017-02-18T04:15:51.793Z,20.97
2017-02-18T04:17:01.753Z,20.97
2017-02-18T04:18:12.501Z,20.97
2017-02-18T04:19:22.073Z,21.03
2017-02-18T04:20:31.623Z,21
2017-02-18T04:21:41.182Z,20.92
2017-02-18T04:22:50.353Z,20.93
2017-02-18T04:23:59.903Z,20.85
2017-02-18T04:25:09.088Z,20.93
2017-02-18T04:26:19.395Z,20.99
2017-02-18T04:27:29.300Z,20.93
2017-02-18T04:28:38.454Z,20.95
2017-02-18T04:29:48.013Z,20.99
2017-02-18T04:30:56.797Z,20.92
2017-02-18T04:32:06.749Z,20.93
2017-02-18T04:33:16.262Z,20.92
2017-02-18T04:34:25.165Z,20.88
2017-02-18T04:35:34.676Z,20.95
2017-02-18T04:36:44.210Z,20.92
2017-02-18T04:37:54.132Z,20.95
2017-02-18T04:39:04.395Z,20.93
2017-02-18T04:40:13.915Z,20.97
2017-02-18T04:41:24.469Z,20.95
2017-02-18T04:42:34.410Z,20.92
2017-02-18T04:43:43.970Z,20.92
2017-02-18T04:44:53.532Z,20.9
2017-02-18T04:46:03.094Z,20.95
2017-02-18T04:47:12.621Z,20.88
2017-02-18T04:48:21.768Z,20.85
2017-02-18T04:49:31.717Z,20.92
2017-02-18T04:50:40.506Z,20.84
2017-02-18T04:51:51.283Z,20.87
2017-02-18T04:53:01.618Z,20.88
2017-02-18T04:54:10.811Z,20.92
2017-02-18T04:55:20.352Z,20.87
2017-02-18T04:56:30.692Z,20.82
2017-02-18T04:57:40.268Z,20.95
2017-02-18T04:58:50.213Z,20.84
2017-02-18T04:59:59.357Z,20.87
2017-02-18T05:01:09.283Z,20.85
2017-02-18T05:02:19.221Z,20.9
2017-02-18T05:03:29.188Z,20.87
2017-02-18T05:04:39.902Z,20.88
2017-02-18T05:05:49.079Z,20.84
2017-02-18T05:06:58.635Z,20.88
2017-02-18T05:08:07.801Z,20.84
2017-02-18T05:09:17.348Z,20.85
2017-02-18T05:10:27.939Z,20.87
2017-02-18T05:11:37.876Z,20.9
2017-02-18T05:12:48.213Z,20.87
2017-02-18T05:13:57.396Z,20.85
2017-02-18T05:15:06.954Z,20.85
2017-02-18T05:16:16.902Z,20.88
2017-02-18T05:17:27.627Z,20.85
2017-02-18T05:18:38.007Z,20.9
2017-02-18T05:19:47.570Z,20.9
2017-02-18T05:20:57.533Z,20.9
2017-02-18T05:22:07.085Z,20.9
2017-02-18T05:23:16.642Z,20.87
2017-02-18T05:24:25.811Z,20.92
2017-02-18T05:25:36.132Z,20.92
2017-02-18T05:26:45.309Z,20.95
2017-02-18T05:27:54.872Z,20.95
2017-02-18T05:29:04.394Z,20.9
2017-02-18T05:30:14.308Z,20.95
2017-02-18T05:31:24.788Z,20.93
2017-02-18T05:32:34.356Z,20.92
2017-02-18T05:33:43.545Z,20.93
2017-02-18T05:34:52.714Z,21.02
2017-02-18T05:36:02.655Z,21.02
2017-02-18T05:37:11.827Z,21.02
2017-02-18T05:38:21.588Z,20.95
2017-02-18T05:39:31.110Z,21.05
2017-02-18T05:40:40.679Z,21.03
2017-02-18T05:41:50.621Z,21.05
2017-02-18T05:42:59.796Z,21.11
2017-02-18T05:44:10.101Z,21.11
2017-02-18T05:45:18.836Z,21.11
2017-02-18T05:46:28.366Z,21.15
2017-02-18T05:47:37.156Z,21.09
2017-02-18T05:48:47.479Z,21.17
2017-02-18T05:49:57.024Z,21.22
2017-02-18T05:51:07.314Z,21.2
2017-02-18T05:52:17.215Z,21.24
2017-02-18T05:53:27.521Z,21.22
2017-02-18T05:54:37.093Z,21.22
2017-02-18T05:55:46.648Z,21.24
2017-02-18T05:56:55.435Z,21.21
2017-02-18T05:58:05.767Z,21.3
2017-02-18T05:59:14.929Z,21.24
2017-02-18T06:00:24.896Z,21.27
2017-02-18T06:01:34.856Z,21.25
2017-02-18T06:02:44.418Z,21.32
2017-02-18T06:03:54.754Z,21.37
2017-02-18T06:05:04.278Z,21.36
2017-02-18T06:06:15.183Z,21.36
2017-02-18T06:07:25.126Z,21.37
2017-02-18T06:08:34.692Z,21.4
2017-02-18T06:09:45.021Z,21.43
2017-02-18T06:10:54.570Z,21.4
2017-02-18T06:12:03.706Z,21.4
2017-02-18T06:13:13.619Z,21.51
2017-02-18T06:14:23.583Z,21.5
2017-02-18T06:15:32.393Z,21.5
2017-02-18T06:16:41.968Z,21.42
2017-02-18T06:17:51.516Z,21.5
2017-02-18T06:19:01.071Z,21.54
2017-02-18T06:20:10.621Z,21.54
2017-02-18T06:21:20.584Z,21.57
2017-02-18T06:22:30.479Z,21.58
2017-02-18T06:23:39.633Z,21.61
2017-02-18T06:24:49.966Z,21.6
2017-02-18T06:26:00.634Z,21.6
2017-02-18T06:27:09.784Z,21.61
2017-02-18T06:28:20.078Z,21.62
2017-02-18T06:29:29.239Z,21.58
2017-02-18T06:30:38.428Z,21.62
2017-02-18T06:31:48.416Z,21.72
2017-02-18T06:32:57.186Z,21.61
2017-02-18T06:34:06.775Z,21.67
2017-02-18T06:35:15.952Z,21.73
2017-02-18T06:36:26.247Z,21.66
2017-02-18T06:37:35.377Z,21.66
2017-02-18T06:38:45.902Z,21.67
2017-02-18T06:39:56.251Z,21.69
2017-02-18T06:41:05.035Z,21.67
2017-02-18T06:42:14.607Z,21.76
2017-02-18T06:43:24.551Z,21.72
2017-02-18T06:44:34.108Z,21.79
2017-02-18T06:45:43.293Z,21.77
2017-02-18T06:46:52.502Z,21.82
2017-02-18T06:48:02.076Z,21.82
2017-02-18T06:49:12.368Z,21.88
2017-02-18T06:50:21.902Z,21.8
2017-02-18T06:51:31.460Z,21.89
2017-02-18T06:52:41.813Z,21.88
2017-02-18T06:53:51.400Z,21.83
2017-02-18T06:55:02.128Z,21.85
2017-02-18T06:56:10.929Z,21.91
2017-02-18T06:57:20.105Z,21.91
2017-02-18T06:58:28.881Z,21.93
2017-02-18T06:59:38.811Z,21.88
2017-02-18T07:00:48.723Z,21.88
2017-02-18T07:01:58.306Z,21.88
2017-02-18T07:03:07.885Z,21.93
2017-02-18T07:04:17.014Z,21.92
2017-02-18T07:05:26.133Z,21.98
2017-02-18T07:06:35.669Z,21.96
2017-02-18T07:07:45.213Z,22
2017-02-18T07:08:54.763Z,22.02
2017-02-18T07:10:04.658Z,21.99
2017-02-18T07:11:14.174Z,21.96
2017-02-18T07:12:23.779Z,22
2017-02-18T07:13:33.302Z,21.99
2017-02-18T07:14:43.263Z,22.06
2017-02-18T07:15:53.197Z,22.07
2017-02-18T07:17:03.588Z,22.11
2017-02-18T07:18:13.888Z,22.13
2017-02-18T07:19:23.382Z,22.1
2017-02-18T07:20:32.910Z,22.08
2017-02-18T07:21:42.077Z,22.07
2017-02-18T07:22:51.291Z,22.07
2017-02-18T07:24:00.852Z,22.17
2017-02-18T07:25:10.021Z,22.17
2017-02-18T07:26:19.976Z,22.13
2017-02-18T07:27:30.315Z,22.17
2017-02-18T07:28:39.497Z,22.18
2017-02-18T07:29:49.067Z,22.11
2017-02-18T07:30:59.026Z,22.2
2017-02-18T07:32:08.215Z,22.17
2017-02-18T07:33:17.780Z,22.17
2017-02-18T07:34:26.904Z,22.17
2017-02-18T07:35:36.010Z,22.23
2017-02-18T07:36:45.930Z,22.17
2017-02-18T07:37:55.062Z,22.23
2017-02-18T07:39:04.404Z,22.18
2017-02-18T07:40:13.551Z,22.2
2017-02-18T07:41:23.499Z,22.14
2017-02-18T07:42:33.456Z,22.2
2017-02-18T07:43:42.645Z,22.26
2017-02-18T07:44:52.584Z,22.26
2017-02-18T07:46:02.140Z,22.28
2017-02-18T07:47:12.899Z,22.28
2017-02-18T07:48:22.004Z,22.28
2017-02-18T07:49:31.547Z,22.25
2017-02-18T07:50:41.122Z,22.23
2017-02-18T07:51:51.094Z,22.28
2017-02-18T07:53:00.266Z,22.29
2017-02-18T07:54:09.832Z,22.33
2017-02-18T07:55:19.025Z,22.39
2017-02-18T07:56:28.403Z,22.3
2017-02-18T07:57:38.723Z,22.28
2017-02-18T07:58:47.845Z,22.28
2017-02-18T07:59:56.944Z,22.3
2017-02-18T08:01:07.259Z,22.29
2017-02-18T08:02:16.806Z,22.35
2017-02-18T08:03:26.179Z,22.3
2017-02-18T08:04:36.206Z,22.36
2017-02-18T08:05:45.785Z,22.38
2017-02-18T08:06:55.322Z,22.32
2017-02-18T08:08:04.865Z,22.36
2017-02-18T08:09:14.392Z,22.33
2017-02-18T08:10:23.535Z,22.39
2017-02-18T08:11:33.071Z,22.41
2017-02-18T08:12:42.595Z,22.36
2017-02-18T08:13:52.146Z,22.35
2017-02-18T08:15:01.721Z,22.47
2017-02-18T08:16:12.447Z,22.43
2017-02-18T08:17:21.844Z,22.39
2017-02-18T08:18:31.743Z,22.45
2017-02-18T08:19:40.894Z,22.43
2017-02-18T08:20:50.450Z,22.41
2017-02-18T08:22:00.388Z,22.48
2017-02-18T08:23:09.907Z,22.48
2017-02-18T08:24:19.510Z,22.5
2017-02-18T08:25:29.026Z,22.43
2017-02-18T08:26:38.519Z,22.5
2017-02-18T08:27:48.039Z,22.53
2017-02-18T08:28:57.209Z,22.54
2017-02-18T08:30:06.385Z,22.47
2017-02-18T08:31:15.944Z,22.55
2017-02-18T08:32:25.068Z,22.5
2017-02-18T08:33:34.598Z,22.54
2017-02-18T08:34:43.732Z,22.53
2017-02-18T08:35:53.712Z,22.54
2017-02-18T08:37:03.460Z,22.54
2017-02-18T08:38:13.382Z,22.62
2017-02-18T08:39:23.673Z,22.59
2017-02-18T08:40:33.838Z,22.65
2017-02-18T08:41:43.787Z,22.6
2017-02-18T08:42:53.327Z,22.65
2017-02-18T08:44:02.459Z,22.65
2017-02-18T08:45:12.364Z,22.68
2017-02-18T08:46:21.531Z,22.66
2017-02-18T08:47:31.488Z,22.7
2017-02-18T08:48:40.689Z,22.73
2017-02-18T08:49:50.256Z,22.75
2017-02-18T08:51:00.196Z,22.66
2017-02-18T08:52:09.760Z,22.72
2017-02-18T08:53:19.712Z,22.63
2017-02-18T08:54:29.649Z,22.75
2017-02-18T08:55:38.848Z,22.72
2017-02-18T08:56:48.808Z,22.69
2017-02-18T08:57:59.155Z,22.65
2017-02-18T08:59:07.933Z,22.72
2017-02-18T09:00:17.095Z,22.7
2017-02-18T09:01:26.659Z,22.8
2017-02-18T09:02:35.835Z,22.72
2017-02-18T09:03:45.010Z,22.81
2017-02-18T09:04:54.562Z,22.8
2017-02-18T09:06:03.777Z,22.87
2017-02-18T09:07:13.354Z,22.9
2017-02-18T09:08:24.067Z,22.94
2017-02-18T09:09:33.213Z,22.94
2017-02-18T09:10:42.701Z,22.96
2017-02-18T09:11:52.284Z,22.98
2017-02-18T09:13:01.464Z,22.93
2017-02-18T09:14:11.010Z,22.94
2017-02-18T09:15:20.922Z,23.06
2017-02-18T09:16:30.103Z,22.94
2017-02-18T09:17:39.676Z,23
2017-02-18T09:18:49.253Z,22.99
2017-02-18T09:19:58.471Z,23.1
2017-02-18T09:21:09.181Z,23.09
2017-02-18T09:22:19.097Z,23.09
2017-02-18T09:23:28.274Z,23.08
2017-02-18T09:24:38.621Z,23.09
2017-02-18T09:25:48.577Z,23.2
2017-02-18T09:26:57.710Z,23.15
2017-02-18T09:28:07.236Z,23.17
2017-02-18T09:29:17.145Z,23.15
2017-02-18T09:30:26.299Z,23.12
2017-02-18T09:31:35.812Z,23.1
2017-02-18T09:32:44.969Z,23.18
2017-02-18T09:33:54.518Z,23.23
2017-02-18T09:35:04.464Z,23.21
2017-02-18T09:36:14.404Z,23.24
2017-02-18T09:37:23.634Z,23.18
2017-02-18T09:38:32.808Z,23.18
2017-02-18T09:39:41.985Z,23.23
2017-02-18T09:40:52.327Z,23.25
2017-02-18T09:42:02.657Z,23.23
2017-02-18T09:43:12.618Z,23.21
2017-02-18T09:44:22.163Z,23.18
2017-02-18T09:45:32.099Z,23.21
2017-02-18T09:46:41.661Z,23.23
2017-02-18T09:47:51.626Z,23.28
2017-02-18T09:49:01.591Z,23.27
2017-02-18T09:50:10.751Z,23.4
2017-02-18T09:51:19.924Z,23.34
2017-02-18T09:52:28.728Z,23.4
2017-02-18T09:53:38.658Z,23.23
2017-02-18T09:54:48.213Z,23.28
2017-02-18T09:55:58.166Z,23.37
2017-02-18T09:57:07.682Z,23.24
2017-02-18T09:58:16.818Z,23.39
2017-02-18T09:59:26.363Z,23.39
2017-02-18T10:00:35.123Z,23.39
2017-02-18T10:01:44.675Z,23.43
2017-02-18T10:02:53.457Z,23.28
2017-02-18T10:04:04.170Z,23.41
2017-02-18T10:05:14.136Z,23.37
2017-02-18T10:06:23.695Z,23.23
2017-02-18T10:07:33.231Z,23.32
2017-02-18T10:08:43.913Z,23.39
2017-02-18T10:09:53.488Z,23.37
2017-02-18T10:11:03.830Z,23.44
2017-02-18T10:12:13.793Z,23.36
2017-02-18T10:13:23.372Z,23.41
2017-02-18T10:14:33.315Z,23.36
2017-02-18T10:15:42.838Z,23.43
2017-02-18T10:16:51.986Z,23.43
2017-02-18T10:18:01.587Z,23.43
2017-02-18T10:19:11.909Z,23.44
2017-02-18T10:20:21.464Z,23.39
2017-02-18T10:21:31.778Z,23.48
2017-02-18T10:22:41.321Z,23.37
2017-02-18T10:23:51.254Z,23.4
2017-02-18T10:25:00.418Z,23.43
2017-02-18T10:26:10.956Z,23.39
2017-02-18T10:27:20.131Z,23.4
2017-02-18T10:28:29.329Z,23.43
2017-02-18T10:29:38.896Z,23.37
2017-02-18T10:30:48.806Z,23.43
2017-02-18T10:31:57.943Z,23.39
2017-02-18T10:33:07.847Z,23.41
2017-02-18T10:34:17.504Z,23.28
2017-02-18T10:35:26.993Z,23.36
2017-02-18T10:36:36.981Z,23.31
2017-02-18T10:37:46.903Z,23.32
2017-02-18T10:38:57.208Z,23.28
2017-02-18T10:40:07.495Z,23.24
2017-02-18T10:41:16.202Z,23.18
2017-02-18T10:42:25.402Z,23.24
2017-02-18T10:43:34.929Z,23.27
2017-02-18T10:44:44.459Z,23.25
2017-02-18T10:45:53.650Z,23.21
2017-02-18T10:47:04.379Z,23.24
2017-02-18T10:48:13.544Z,23.24
2017-02-18T10:49:23.245Z,23.21
2017-02-18T10:50:32.428Z,23.23
2017-02-18T10:51:41.205Z,23.23
2017-02-18T10:52:51.947Z,23.39
2017-02-18T10:54:01.514Z,23.32
2017-02-18T10:55:11.466Z,23.36
2017-02-18T10:56:21.052Z,23.27
2017-02-18T10:57:30.764Z,23.36
2017-02-18T10:58:39.952Z,23.31
2017-02-18T10:59:49.140Z,23.4
2017-02-18T11:00:58.654Z,23.43
2017-02-18T11:02:07.798Z,23.37
2017-02-18T11:03:16.626Z,23.39
2017-02-18T11:04:25.805Z,23.43
2017-02-18T11:05:35.757Z,23.4
2017-02-18T11:06:45.714Z,23.39
2017-02-18T11:07:55.633Z,23.43
2017-02-18T11:09:04.777Z,23.47
2017-02-18T11:10:14.669Z,23.46
2017-02-18T11:11:24.217Z,23.43
2017-02-18T11:12:33.034Z,23.48
2017-02-18T11:13:42.999Z,23.51
2017-02-18T11:14:52.120Z,23.48
2017-02-18T11:16:02.051Z,23.47
2017-02-18T11:17:12.365Z,23.41
2017-02-18T11:18:21.524Z,23.56
2017-02-18T11:19:30.714Z,23.47
2017-02-18T11:20:39.885Z,23.54
2017-02-18T11:21:48.690Z,23.48
2017-02-18T11:22:57.841Z,23.48
2017-02-18T11:24:06.992Z,23.5
2017-02-18T11:25:16.870Z,23.5
2017-02-18T11:26:25.983Z,23.59
2017-02-18T11:27:35.096Z,23.44
2017-02-18T11:28:43.861Z,23.51
2017-02-18T11:29:53.044Z,23.5
2017-02-18T11:31:02.985Z,23.54
2017-02-18T11:32:12.150Z,23.47
2017-02-18T11:33:21.283Z,23.46
2017-02-18T11:34:30.003Z,23.41
2017-02-18T11:35:39.908Z,23.55
2017-02-18T11:36:48.675Z,23.47
2017-02-18T11:37:58.262Z,23.54
2017-02-18T11:39:08.202Z,23.48
2017-02-18T11:40:18.151Z,23.41
2017-02-18T11:41:27.681Z,23.43
2017-02-18T11:42:37.274Z,23.43
2017-02-18T11:43:46.799Z,23.5
2017-02-18T11:44:55.564Z,23.51
2017-02-18T11:46:05.071Z,23.46
2017-02-18T11:47:14.603Z,23.56
2017-02-18T11:48:24.179Z,23.54
2017-02-18T11:49:34.155Z,23.47
2017-02-18T11:50:43.323Z,23.47
2017-02-18T11:51:53.625Z,23.44
2017-02-18T11:53:04.314Z,23.58
2017-02-18T11:54:13.454Z,23.61
2017-02-18T11:55:22.603Z,23.58
2017-02-18T11:56:32.517Z,23.5
2017-02-18T11:57:46.468Z,23.58
2017-02-18T11:58:56.016Z,23.47
2017-02-18T12:00:05.959Z,23.55
2017-02-18T12:01:15.142Z,23.54
2017-02-18T12:02:24.886Z,23.55
2017-02-18T12:03:34.456Z,23.46
2017-02-18T12:04:44.431Z,23.47
2017-02-18T12:05:53.183Z,23.39
2017-02-18T12:07:02.685Z,23.55
2017-02-18T12:08:12.229Z,23.39
2017-02-18T12:09:21.408Z,23.46
2017-02-18T12:10:30.214Z,23.51
2017-02-18T12:11:38.989Z,23.39
2017-02-18T12:12:47.747Z,23.37
2017-02-18T12:13:57.905Z,23.43
2017-02-18T12:15:07.463Z,23.46
2017-02-18T12:16:16.623Z,23.41
2017-02-18T12:17:26.641Z,23.39
2017-02-18T12:18:35.417Z,23.46
2017-02-18T12:19:45.774Z,23.4
2017-02-18T12:20:54.937Z,23.41
2017-02-18T12:22:04.878Z,23.41
2017-02-18T12:23:14.399Z,23.48
2017-02-18T12:24:23.954Z,23.46
2017-02-18T12:25:33.495Z,23.39
2017-02-18T12:26:42.998Z,23.44
2017-02-18T12:27:51.768Z,23.48
2017-02-18T12:29:01.291Z,23.43
2017-02-18T12:30:10.062Z,23.44
2017-02-18T12:31:19.586Z,23.41
2017-02-18T12:32:29.515Z,23.4
2017-02-18T12:33:39.088Z,23.41
2017-02-18T12:34:47.914Z,23.43
2017-02-18T12:35:57.472Z,23.43
2017-02-18T12:37:07.028Z,23.48
2017-02-18T12:38:16.962Z,23.43
2017-02-18T12:39:27.344Z,23.44
2017-02-18T12:40:36.558Z,23.46
2017-02-18T12:41:46.499Z,23.23
2017-02-18T12:42:56.840Z,23.41
2017-02-18T12:44:06.784Z,23.31
2017-02-18T12:45:15.980Z,23.31
2017-02-18T12:46:25.131Z,23.37
2017-02-18T12:47:34.696Z,23.36
2017-02-18T12:48:43.876Z,23.37
2017-02-18T12:49:53.041Z,23.34
2017-02-18T12:51:03.366Z,23.28
2017-02-18T12:52:12.546Z,23.36
2017-02-18T12:53:22.131Z,23.36
2017-02-18T12:54:31.708Z,23.37
2017-02-18T12:55:41.662Z,23.34
2017-02-18T12:56:50.792Z,23.36
2017-02-18T12:57:59.955Z,23.34
2017-02-18T12:59:09.525Z,23.4
2017-02-18T13:00:18.687Z,23.41
2017-02-18T13:01:28.652Z,23.32
2017-02-18T13:02:38.602Z,23.32
2017-02-18T13:03:48.568Z,23.28
2017-02-18T13:04:58.912Z,23.31
2017-02-18T13:06:09.259Z,23.31
2017-02-18T13:07:19.181Z,23.28
2017-02-18T13:08:29.117Z,23.34
2017-02-18T13:09:39.098Z,23.4
2017-02-18T13:10:48.645Z,23.4
2017-02-18T13:11:58.587Z,23.39
2017-02-18T13:13:07.753Z,23.44
2017-02-18T13:14:17.721Z,23.34
2017-02-18T13:15:27.451Z,23.34
2017-02-18T13:16:37.428Z,23.37
2017-02-18T13:17:47.767Z,23.36
2017-02-18T13:18:57.324Z,23.31
2017-02-18T13:20:06.544Z,23.28
2017-02-18T13:21:16.079Z,23.28
2017-02-18T13:22:25.617Z,23.27
2017-02-18T13:23:35.184Z,23.34
2017-02-18T13:24:44.736Z,23.25
2017-02-18T13:25:54.298Z,23.36
2017-02-18T13:27:04.221Z,23.32
2017-02-18T13:28:13.960Z,23.36
2017-02-18T13:29:23.903Z,23.32
2017-02-18T13:30:33.840Z,23.34
2017-02-18T13:31:43.415Z,23.36
2017-02-18T13:32:52.975Z,23.27
2017-02-18T13:34:02.942Z,23.37
2017-02-18T13:35:12.495Z,23.31
2017-02-18T13:36:21.655Z,23.27
2017-02-18T13:37:30.834Z,23.36
2017-02-18T13:38:39.994Z,23.24
2017-02-18T13:39:49.930Z,23.28
2017-02-18T13:41:00.265Z,23.27
2017-02-18T13:42:09.832Z,23.28
2017-02-18T13:43:19.361Z,23.39
2017-02-18T13:44:28.850Z,23.37
2017-02-18T13:45:38.064Z,23.37
2017-02-18T13:46:47.988Z,23.37
2017-02-18T13:47:57.512Z,23.39
2017-02-18T13:49:07.078Z,23.43
2017-02-18T13:50:16.261Z,23.43
2017-02-18T13:51:25.467Z,23.37
2017-02-18T13:52:35.437Z,23.34
2017-02-18T13:53:45.016Z,23.39
2017-02-18T13:54:54.593Z,23.4
2017-02-18T13:56:04.920Z,23.37
2017-02-18T13:57:14.099Z,23.39
2017-02-18T13:58:23.277Z,23.36
2017-02-18T13:59:32.464Z,23.43
2017-02-18T14:00:41.620Z,23.41
2017-02-18T14:01:50.775Z,23.31
2017-02-18T14:03:00.728Z,23.39
2017-02-18T14:04:10.279Z,23.34
2017-02-18T14:05:19.116Z,23.43
2017-02-18T14:06:29.069Z,23.37
2017-02-18T14:07:38.226Z,23.34
2017-02-18T14:08:47.398Z,23.27
2017-02-18T14:09:56.195Z,23.28
2017-02-18T14:11:06.523Z,23.28
2017-02-18T14:12:16.105Z,23.39
2017-02-18T14:13:25.170Z,23.28
2017-02-18T14:14:34.335Z,23.27
2017-02-18T14:15:43.880Z,23.34
2017-02-18T14:16:53.740Z,23.28
2017-02-18T14:18:03.313Z,23.32
2017-02-18T14:19:13.237Z,23.36
2017-02-18T14:20:23.158Z,23.31
2017-02-18T14:21:32.341Z,23.37
2017-02-18T14:22:41.097Z,23.39
2017-02-18T14:23:50.055Z,23.25
2017-02-18T14:24:59.585Z,23.37
2017-02-18T14:26:09.081Z,23.39
2017-02-18T14:27:19.011Z,23.36
2017-02-18T14:28:29.338Z,23.32
2017-02-18T14:29:38.516Z,23.27
2017-02-18T14:30:48.464Z,23.23
2017-02-18T14:31:58.422Z,23.23
2017-02-18T14:33:08.023Z,23.31
2017-02-18T14:34:17.568Z,23.23
2017-02-18T14:35:27.526Z,23.24
2017-02-18T14:36:36.320Z,23.24
2017-02-18T14:37:46.676Z,23.21
2017-02-18T14:38:56.628Z,23.21
2017-02-18T14:40:06.565Z,23.21
2017-02-18T14:41:15.736Z,23.18
2017-02-18T14:42:24.521Z,23.23
2017-02-18T14:43:34.482Z,23.13
2017-02-18T14:44:43.658Z,23.25
2017-02-18T14:45:53.220Z,23.23
2017-02-18T14:47:02.789Z,23.23
2017-02-18T14:48:12.345Z,23.18
2017-02-18T14:49:21.901Z,23.21
2017-02-18T14:50:30.713Z,23.21
2017-02-18T14:51:39.864Z,23.17
2017-02-18T14:52:49.662Z,23.18
2017-02-18T14:53:59.181Z,23.2
2017-02-18T14:55:08.341Z,23.13
2017-02-18T14:56:17.912Z,23.17
2017-02-18T14:57:27.275Z,23.18
2017-02-18T14:58:36.820Z,23.15
2017-02-18T14:59:46.774Z,23.17